Terminal Aerodrome Forecast
Issued by NWS Shreveport, LA

Home | Current Version | Previous Version | Text Only | Print | Product List | Glossary On
Versions: 1 2 3 4 5 6 7 8 9 10 11 12 13
143
FTUS44 KSHV 170541
TAFTYR
TAF
KTYR 170541Z 1706/1806 18005KT 4SM SHRA BR SCT006 OVC015
      TEMPO 1706/1708 3SM SHRA BR OVC007
     FM170800 10005KT 6SM BR OVC006
      TEMPO 1708/1712 4SM BR OVC004
     FM171200 12004KT 4SM BR OVC003
     FM171600 15004KT P6SM OVC007
     FM171800 18005KT P6SM BKN015
     FM172000 18005KT P6SM SCT025 BKN250
     FM180000 11004KT P6SM BKN250=

USA.gov is the U.S. government's official web portal to all federal, state and local government web resources and services.